Saint Louis, MO

7:28 AM CDT on August 04, 2015 (GMT -0500)
Soulard | | Change Station
CLOSE
Current Station
Personal Weather Station
Location: Saint Louis, MO
Elevation: 535 ft
Nearby Weather Stations

Elev 535 ft 38.61 °N, 90.21 °W | Updated 3 minutes ago

Partly Cloudy
Partly Cloudy
75.2 °F
Feels Like 76 °F
N
2.2
Wind Variable Wind from ENE

Today
High -- | Low -- °F
--% Chance of Precip.
Yesterday
High -- | Low -- °F
Precip. -- in
6:04 AM 8:08 PM
Waning Gibbous, 78% visible
Pressure 29.95 in
Visibility 10.0 miles
Clouds Few 5000 ft
Scattered Clouds 15000 ft
Mostly Cloudy 20000 ft
Overcast 25000 ft
Heat Index 76 °F
Dew Point 67 °F
Humidity 75%
Rainfall 0.00 in
Snow Depth Not available.
UV 0 out of 12
Pollen 6.50 out of 12
Air Quality Not available.
Flu Activity Not available.
METAR KSTL 041151Z 09003KT 10SM FEW050 SCT150 BKN200 OVC250 24/18 A2999 RMK AO2 SLP141 ACC NE T02390183 10267 20239 51012

More Conditions Fewer Conditions

Pressure 29.95 in
Visibility 10.0 miles
Clouds Few 5000 ft
Scattered Clouds 15000 ft
Mostly Cloudy 20000 ft
Overcast 25000 ft
Heat Index 76 °F
Dew Point 67 °F
Humidity 75%
Rainfall 0.00 in
Snow Depth Not available.
UV 0 out of 12
Pollen 6.50 out of 12
Air Quality Not available.
Flu Activity Not available.
METAR KSTL 041151Z 09003KT 10SM FEW050 SCT150 BKN200 OVC250 24/18 A2999 RMK AO2 SLP141 ACC NE T02390183 10267 20239 51012

More Conditions Fewer Conditions

10-Day Weather Forecast

×

Almanac

Astronomy

Aug. 04, 2015 Rise Set
Actual Time
Civil Twilight
Nautical Twilight
Astronomical Twilight
Moon
Length of Visible Light
Length of Day
Tomorrow will be .
, % of the Moon is Illuminated

Today's Extremes

State Highs State Lows

Community

WunderPhotos

Upload Photos

1,843,910 photos uploaded!

WunderBlogs® & News

Nearby

Air Quality

  Air Quality AQ Index Pollutant
Not available.

Snow Depth

Station Depth Elevation

Earthquake Activity

City Distance Mag. Time & Date
Minimum magnitude displayed is 2.5.

Coastal Water Temperatures

Place Temperature

Stations

Nearby Weather Stations

Station Location Temp. Windchill Dew Point Humidity Wind Precip. Elev Updated Type